Time;durP1;ratioP1;P1;durP2;ratioP2;P2;SDS_P1;SDS_P2;PMS_P1;PMS_P2;Temp;Humidity;BMP_temperature;BMP_pressure;BME280_temperature;BME280_humidity;BME280_pressure;Samples;Min_cycle;Max_cycle;Signal;HPM_P1;HPM_P2
2022/07/19 00:01:21;;;;;;;5.13;4.00;;;21.20;99.90;;;;;;5050529;28;20474;-70
2022/07/19 00:03:48;;;;;;;4.20;3.47;;;21.10;99.90;;;;;;5057496;28;20458;-71
2022/07/19 00:06:14;;;;;;;7.53;3.53;;;21.00;99.90;;;;;;5054328;28;20753;-69
2022/07/19 00:08:43;;;;;;;7.83;4.37;;;21.00;99.90;;;;;;5056112;28;20475;-70
2022/07/19 00:11:09;;;;;;;3.53;3.23;;;21.00;99.90;;;;;;5051265;28;20471;-70
2022/07/19 00:13:36;;;;;;;4.90;3.40;;;21.10;99.90;;;;;;5058620;28;20975;-70
2022/07/19 00:16:03;;;;;;;3.60;3.30;;;21.10;99.90;;;;;;5052810;28;20462;-71
2022/07/19 00:18:30;;;;;;;5.07;3.30;;;21.20;99.90;;;;;;5053425;28;21232;-70
2022/07/19 00:20:57;;;;;;;7.03;3.97;;;21.10;99.90;;;;;;5054865;28;20489;-70
2022/07/19 00:23:23;;;;;;;5.23;3.00;;;21.00;99.90;;;;;;5058692;28;20462;-70
2022/07/19 00:25:51;;;;;;;5.00;3.83;;;20.90;99.90;;;;;;5052580;28;21037;-70
2022/07/19 00:28:18;;;;;;;4.43;3.57;;;20.90;99.90;;;;;;5050904;28;20478;-70
2022/07/19 00:30:46;;;;;;;6.80;3.40;;;20.90;99.90;;;;;;5055908;28;20454;-71
2022/07/19 00:33:13;;;;;;;5.07;3.70;;;20.60;99.90;;;;;;5058784;28;20458;-70
2022/07/19 00:35:40;;;;;;;4.00;3.50;;;20.10;99.90;;;;;;5061461;28;20454;-70
2022/07/19 00:38:07;;;;;;;3.73;3.43;;;20.10;99.90;;;;;;5056160;28;20487;-70
2022/07/19 00:40:34;;;;;;;3.43;2.83;;;20.30;99.90;;;;;;5056836;28;20465;-70
2022/07/19 00:43:03;;;;;;;4.67;3.83;;;20.50;99.90;;;;;;5067488;28;20486;-70
2022/07/19 00:45:30;;;;;;;4.70;3.40;;;20.60;99.90;;;;;;5055020;28;21070;-70
2022/07/19 00:47:57;;;;;;;4.53;3.97;;;20.60;99.90;;;;;;5056991;28;20499;-71
2022/07/19 00:50:24;;;;;;;7.60;3.50;;;20.60;99.90;;;;;;5056096;28;20455;-71
2022/07/19 00:52:53;;;;;;;3.73;3.43;;;20.60;99.90;;;;;;5065782;28;20466;-70
2022/07/19 00:55:20;;;;;;;5.10;3.70;;;20.60;99.90;;;;;;5064766;28;20455;-70
2022/07/19 00:57:48;;;;;;;4.00;3.60;;;20.60;99.90;;;;;;5058643;28;20475;-69
2022/07/19 01:00:17;;;;;;;5.00;3.30;;;20.60;99.90;;;;;;5059007;28;20466;-70
2022/07/19 01:02:44;;;;;;;4.50;3.33;;;20.70;99.90;;;;;;5059606;28;20458;-70
2022/07/19 01:05:12;;;;;;;3.70;2.90;;;20.70;99.90;;;;;;5051754;28;20483;-70
2022/07/19 01:07:41;;;;;;;11.13;3.03;;;20.60;99.90;;;;;;5060325;28;20475;-70
2022/07/19 01:10:11;;;;;;;3.63;3.33;;;20.50;99.90;;;;;;5055525;28;20462;-70
2022/07/19 01:12:38;;;;;;;5.07;3.67;;;20.50;99.90;;;;;;5060569;28;20451;-70
2022/07/19 01:15:15;;;;;;;5.10;3.47;;;20.60;99.90;;;;;;5045857;28;20463;-71
2022/07/19 01:17:43;;;;;;;7.00;3.87;;;20.50;99.90;;;;;;5057458;28;20982;-70
2022/07/19 01:20:11;;;;;;;7.97;3.67;;;20.40;99.90;;;;;;5057423;28;20466;-70
2022/07/19 01:22:39;;;;;;;9.87;3.83;;;20.40;99.90;;;;;;5056017;28;20467;-70
2022/07/19 01:25:07;;;;;;;6.40;3.50;;;20.40;99.90;;;;;;5064294;28;20574;-71
2022/07/19 01:27:39;;;;;;;4.97;4.30;;;20.50;99.90;;;;;;5061733;28;20460;-70
2022/07/19 01:30:11;;;;;;;6.30;4.03;;;20.50;99.90;;;;;;5059924;28;20470;-70
2022/07/19 01:32:38;;;;;;;6.03;3.33;;;20.50;99.90;;;;;;5064611;28;20835;-70
2022/07/19 01:35:06;;;;;;;5.37;4.70;;;20.40;99.90;;;;;;5061454;28;20465;-70
2022/07/19 01:37:34;;;;;;;6.70;3.87;;;20.40;99.90;;;;;;5055859;28;20479;-69
2022/07/19 01:40:02;;;;;;;6.43;4.33;;;20.40;99.90;;;;;;5059803;28;20459;-71
2022/07/19 01:42:29;;;;;;;4.87;3.40;;;20.40;99.90;;;;;;5066186;28;20489;-70
2022/07/19 01:44:56;;;;;;;6.40;3.73;;;20.40;99.90;;;;;;5061340;28;20617;-70
2022/07/19 01:47:23;;;;;;;5.27;4.57;;;20.30;99.90;;;;;;5061383;28;20821;-69
2022/07/19 01:49:50;;;;;;;6.67;3.90;;;20.30;99.90;;;;;;5066287;28;20905;-70
2022/07/19 01:52:17;;;;;;;5.60;3.73;;;20.30;99.90;;;;;;5055453;28;20456;-70
2022/07/19 01:54:44;;;;;;;6.30;3.73;;;20.30;99.90;;;;;;5067505;28;20804;-70
2022/07/19 01:57:12;;;;;;;5.70;4.00;;;20.30;99.90;;;;;;5047180;28;21564;-70
2022/07/19 01:59:40;;;;;;;7.20;4.13;;;20.30;99.90;;;;;;5056423;28;20467;-70
2022/07/19 02:02:07;;;;;;;3.83;3.33;;;20.20;99.90;;;;;;5050318;28;20426;-70
2022/07/19 02:04:34;;;;;;;4.17;3.80;;;20.00;99.90;;;;;;5067528;28;20439;-71
2022/07/19 02:07:01;;;;;;;4.20;3.90;;;19.80;99.90;;;;;;5064020;28;20852;-70
2022/07/19 02:09:27;;;;;;;3.90;3.53;;;19.90;99.90;;;;;;5056953;28;20463;-70
2022/07/19 02:11:54;;;;;;;5.03;3.50;;;20.00;99.90;;;;;;5051398;28;20529;-69
2022/07/19 02:14:22;;;;;;;7.67;4.20;;;20.10;99.90;;;;;;5049260;28;20981;-70
2022/07/19 02:16:49;;;;;;;5.30;3.20;;;20.10;99.90;;;;;;5055731;28;20480;-70
2022/07/19 02:19:16;;;;;;;4.23;3.73;;;20.10;99.90;;;;;;5052682;28;20836;-70
2022/07/19 02:21:43;;;;;;;5.50;5.00;;;20.20;99.90;;;;;;5055066;28;20455;-70
2022/07/19 02:24:10;;;;;;;4.00;3.70;;;20.20;99.90;;;;;;5059038;28;20464;-70
2022/07/19 02:26:37;;;;;;;7.40;3.97;;;20.20;99.90;;;;;;5057273;28;20486;-70
2022/07/19 02:29:04;;;;;;;4.67;4.17;;;20.10;99.90;;;;;;5052541;28;20459;-70
2022/07/19 02:31:32;;;;;;;5.43;3.77;;;20.10;99.90;;;;;;5058395;28;20458;-70
2022/07/19 02:33:59;;;;;;;9.10;3.60;;;20.00;99.90;;;;;;5059695;28;20459;-70
2022/07/19 02:36:26;;;;;;;5.17;4.77;;;19.90;99.90;;;;;;5059377;28;20460;-70
2022/07/19 02:38:53;;;;;;;4.43;3.90;;;20.00;99.90;;;;;;5056204;28;20971;-70
2022/07/19 02:41:20;;;;;;;7.47;4.03;;;20.00;99.90;;;;;;5053752;28;20482;-71
2022/07/19 02:43:47;;;;;;;7.37;4.10;;;19.90;99.90;;;;;;5057781;28;20459;-71
2022/07/19 02:46:14;;;;;;;5.77;4.30;;;19.90;99.90;;;;;;5044785;28;20483;-71
2022/07/19 02:48:42;;;;;;;4.30;3.90;;;19.90;99.90;;;;;;5056271;28;20874;-71
2022/07/19 02:51:11;;;;;;;6.40;3.83;;;20.00;99.90;;;;;;5059190;28;20451;-72
2022/07/19 02:53:38;;;;;;;8.03;3.97;;;20.00;99.90;;;;;;5053787;28;20429;-70
2022/07/19 02:56:06;;;;;;;4.17;3.30;;;20.00;99.90;;;;;;5057478;28;21179;-70
2022/07/19 02:58:33;;;;;;;7.60;3.40;;;20.10;99.90;;;;;;5048772;28;20575;-71
2022/07/19 03:01:00;;;;;;;6.57;3.60;;;20.10;99.90;;;;;;5056127;28;20455;-71
2022/07/19 03:03:46;;;;;;;11.40;4.70;;;20.00;99.90;;;;;;5050384;28;20557;-71
2022/07/19 03:06:17;;;;;;;6.17;4.03;;;20.00;99.90;;;;;;5056873;28;20518;-70
2022/07/19 03:08:44;;;;;;;4.93;4.47;;;20.10;99.90;;;;;;5057608;28;20524;-71
2022/07/19 03:11:12;;;;;;;4.27;3.67;;;20.20;99.90;;;;;;5061024;28;20490;-71
2022/07/19 03:13:39;;;;;;;11.50;4.97;;;20.20;99.90;;;;;;5059165;28;20464;-70
2022/07/19 03:16:07;;;;;;;9.90;5.43;;;20.20;99.90;;;;;;5062347;28;20431;-70
2022/07/19 03:18:34;;;;;;;4.30;3.20;;;20.30;99.90;;;;;;5060419;28;20466;-70
2022/07/19 03:21:01;;;;;;;9.20;4.20;;;20.30;99.90;;;;;;5065642;28;20443;-70
2022/07/19 03:23:32;;;;;;;5.50;4.73;;;20.30;99.90;;;;;;5050666;28;20455;-70
2022/07/19 03:26:00;;;;;;;5.13;3.90;;;20.30;99.90;;;;;;5060498;28;20485;-70
2022/07/19 03:28:27;;;;;;;7.63;3.83;;;20.20;99.90;;;;;;5062077;28;20475;-71
2022/07/19 03:30:54;;;;;;;4.23;3.80;;;20.30;99.90;;;;;;5054941;28;20455;-70
2022/07/19 03:33:20;;;;;;;9.63;3.80;;;20.40;99.90;;;;;;5052441;28;20460;-71
2022/07/19 03:35:47;;;;;;;8.17;5.60;;;20.40;99.90;;;;;;5051822;28;20999;-72
2022/07/19 03:38:16;;;;;;;9.57;5.40;;;20.30;99.90;;;;;;5062129;28;20567;-71
2022/07/19 03:40:47;;;;;;;9.73;5.00;;;20.30;99.90;;;;;;5059794;28;20463;-72
2022/07/19 03:43:15;;;;;;;13.87;5.23;;;20.30;99.90;;;;;;5054492;28;20757;-70
2022/07/19 03:45:42;;;;;;;5.43;4.27;;;20.40;99.90;;;;;;5059169;28;20468;-72
2022/07/19 03:48:09;;;;;;;6.13;3.70;;;20.40;99.90;;;;;;5104801;22;20498;-75
2022/07/19 03:50:38;;;;;;;7.63;3.63;;;20.40;99.90;;;;;;5123191;27;20436;-76
2022/07/19 03:53:05;;;;;;;5.00;3.73;;;20.40;99.90;;;;;;5121227;27;20831;-74
2022/07/19 03:55:32;;;;;;;8.43;3.67;;;20.40;99.90;;;;;;5117492;27;20456;-74
2022/07/19 03:58:00;;;;;;;4.90;3.33;;;20.40;99.90;;;;;;5110078;27;20566;-77
2022/07/19 04:00:27;;;;;;;6.43;4.27;;;20.30;99.90;;;;;;5095795;27;20457;-77
2022/07/19 04:02:54;;;;;;;14.57;5.20;;;20.30;99.90;;;;;;5097935;27;20469;-77
2022/07/19 04:05:20;;;;;;;6.80;3.23;;;20.30;99.90;;;;;;5091590;27;20460;-76
2022/07/19 04:07:47;;;;;;;8.77;4.30;;;20.30;99.90;;;;;;5096270;27;20478;-76
2022/07/19 04:10:14;;;;;;;8.60;5.37;;;20.30;99.90;;;;;;5096685;27;20528;-75
2022/07/19 04:12:41;;;;;;;7.03;3.87;;;20.30;99.90;;;;;;5097815;27;20552;-76
2022/07/19 04:15:10;;;;;;;10.10;4.47;;;20.40;99.90;;;;;;5095833;27;20469;-76
2022/07/19 04:17:37;;;;;;;9.90;3.90;;;20.40;99.90;;;;;;5100027;27;20477;-76
2022/07/19 04:20:06;;;;;;;5.93;3.93;;;20.40;99.90;;;;;;5097720;27;20445;-77
2022/07/19 04:22:33;;;;;;;7.93;4.53;;;20.30;99.90;;;;;;5107719;27;20468;-76
2022/07/19 04:25:02;;;;;;;5.57;4.67;;;20.30;99.90;;;;;;5098063;27;20539;-76
2022/07/19 04:27:29;;;;;;;11.03;4.50;;;20.20;99.90;;;;;;5107028;27;20502;-77
2022/07/19 04:29:56;;;;;;;6.80;4.77;;;20.30;99.90;;;;;;5096750;27;20453;-78
2022/07/19 04:32:24;;;;;;;5.77;3.40;;;20.30;99.90;;;;;;5100120;27;21030;-78
2022/07/19 04:34:51;;;;;;;4.50;3.33;;;20.30;99.90;;;;;;5102382;27;20812;-78
2022/07/19 04:37:18;;;;;;;7.63;3.90;;;20.40;99.90;;;;;;5098831;27;20481;-77
2022/07/19 04:39:45;;;;;;;7.30;3.17;;;20.40;99.90;;;;;;5107205;27;20540;-78
2022/07/19 04:42:12;;;;;;;7.00;3.77;;;20.40;99.90;;;;;;5105483;27;20585;-78
2022/07/19 04:44:39;;;;;;;11.60;5.23;;;20.50;99.90;;;;;;5105722;27;20457;-78
2022/07/19 04:47:06;;;;;;;6.40;3.80;;;20.50;99.90;;;;;;5097777;27;20486;-78
2022/07/19 04:49:34;;;;;;;4.67;4.00;;;20.60;99.90;;;;;;5085587;27;21214;-76
2022/07/19 04:52:01;;;;;;;10.83;3.93;;;20.70;99.90;;;;;;5094990;27;20986;-75
2022/07/19 04:54:28;;;;;;;5.27;3.33;;;20.70;99.90;;;;;;5096838;27;20461;-76
2022/07/19 04:56:55;;;;;;;9.30;5.63;;;20.70;99.90;;;;;;5096481;28;20850;-76
2022/07/19 04:59:22;;;;;;;7.67;4.37;;;20.70;99.90;;;;;;5107632;27;20442;-75
2022/07/19 05:01:48;;;;;;;9.57;5.00;;;20.80;99.90;;;;;;5105285;28;20491;-76
2022/07/19 05:04:15;;;;;;;6.77;3.90;;;20.80;99.90;;;;;;5106233;28;20450;-77
2022/07/19 05:06:44;;;;;;;9.90;4.87;;;20.80;99.90;;;;;;5105936;27;20501;-75
2022/07/19 05:09:11;;;;;;;8.10;5.13;;;20.90;99.90;;;;;;5102533;27;20535;-76
2022/07/19 05:11:38;;;;;;;5.60;3.57;;;21.20;99.90;;;;;;5104185;27;20453;-77
2022/07/19 05:14:05;;;;;;;7.80;4.37;;;21.30;99.90;;;;;;5110215;28;20529;-77
2022/07/19 05:16:31;;;;;;;6.47;3.97;;;21.50;99.90;;;;;;5111217;27;20433;-76
2022/07/19 05:18:58;;;;;;;6.97;4.13;;;21.70;99.90;;;;;;5109238;28;20560;-76
2022/07/19 05:21:25;;;;;;;7.93;4.30;;;22.00;99.90;;;;;;5098741;27;20461;-76
2022/07/19 05:23:53;;;;;;;6.20;3.90;;;22.30;99.90;;;;;;5104708;28;20442;-76
2022/07/19 05:26:20;;;;;;;4.20;3.50;;;22.50;99.90;;;;;;5099753;27;20474;-76
2022/07/19 05:28:48;;;;;;;3.47;3.17;;;22.80;99.90;;;;;;5104282;28;20479;-76
2022/07/19 05:31:15;;;;;;;6.63;3.73;;;23.00;99.90;;;;;;5104363;27;20482;-77
2022/07/19 05:33:42;;;;;;;114.23;13.10;;;23.10;99.90;;;;;;5106457;27;20517;-76
2022/07/19 05:36:10;;;;;;;3.77;3.30;;;23.30;99.90;;;;;;5105557;28;20815;-77
2022/07/19 05:38:38;;;;;;;5.00;3.47;;;23.30;99.90;;;;;;5100505;28;20469;-76
2022/07/19 05:41:07;;;;;;;3.40;2.80;;;23.50;99.90;;;;;;5103769;27;20495;-77
2022/07/19 05:43:35;;;;;;;3.40;3.10;;;23.80;99.90;;;;;;5101500;27;20439;-78
2022/07/19 05:46:02;;;;;;;6.47;3.30;;;24.10;99.90;;;;;;5103703;27;20454;-77
2022/07/19 05:48:29;;;;;;;8.10;3.73;;;24.30;99.90;;;;;;5104105;28;20488;-76
2022/07/19 05:50:56;;;;;;;4.60;3.10;;;24.70;99.90;;;;;;5101496;27;21044;-77
2022/07/19 05:53:22;;;;;;;5.53;3.13;;;25.00;99.90;;;;;;5104466;27;20528;-77
2022/07/19 05:55:49;;;;;;;7.60;3.47;;;25.10;99.90;;;;;;5102519;27;20449;-75
2022/07/19 05:58:18;;;;;;;17.23;4.47;;;24.90;99.90;;;;;;5101649;28;20556;-76
2022/07/19 06:01:17;;;;;;;4.50;2.40;;;25.00;99.90;;;;;;5103603;27;20438;-76
2022/07/19 06:03:32;;;;;;;10.40;3.73;;;25.50;99.90;;;;;;5101259;28;21025;-76
2022/07/19 06:05:59;;;;;;;6.63;3.47;;;26.10;99.90;;;;;;5104241;27;20441;-76
2022/07/19 06:08:26;;;;;;;6.27;3.23;;;26.40;99.90;;;;;;5099535;28;20477;-76
2022/07/19 06:10:53;;;;;;;10.93;3.50;;;26.50;99.90;;;;;;5101199;28;20566;-77
2022/07/19 06:13:22;;;;;;;3.73;2.50;;;26.50;99.90;;;;;;5105463;27;21297;-75
2022/07/19 06:15:49;;;;;;;4.97;2.50;;;26.40;99.90;;;;;;5103678;27;20441;-76
2022/07/19 06:18:16;;;;;;;3.93;2.73;;;26.40;99.90;;;;;;5107415;27;20452;-76
2022/07/19 06:20:43;;;;;;;7.90;3.20;;;26.80;99.90;;;;;;5100771;28;20466;-76
2022/07/19 06:23:10;;;;;;;4.60;2.90;;;27.00;99.90;;;;;;5102609;27;20461;-76
2022/07/19 06:25:37;;;;;;;11.93;3.13;;;27.40;99.90;;;;;;5104497;28;20784;-77
2022/07/19 06:28:04;;;;;;;7.47;3.00;;;27.90;99.90;;;;;;5103532;27;20481;-77
2022/07/19 06:30:32;;;;;;;7.90;3.17;;;28.20;99.90;;;;;;5094132;28;20562;-77
2022/07/19 06:33:00;;;;;;;11.53;3.17;;;28.80;99.90;;;;;;5104009;28;20485;-77
2022/07/19 06:35:27;;;;;;;12.37;5.70;;;28.20;99.90;;;;;;5106534;28;20439;-77
2022/07/19 06:37:54;;;;;;;3.97;3.33;;;28.60;99.90;;;;;;5100213;28;20484;-77
2022/07/19 06:40:20;;;;;;;7.20;2.90;;;29.10;99.10;;;;;;5102784;27;20891;-76
2022/07/19 06:42:47;;;;;;;4.83;3.27;;;29.00;98.30;;;;;;5102358;28;20443;-77
2022/07/19 06:45:15;;;;;;;6.53;2.90;;;28.60;98.20;;;;;;5100554;27;20851;-77
2022/07/19 06:47:43;;;;;;;8.23;3.27;;;28.80;98.00;;;;;;5098868;28;20947;-76
2022/07/19 06:50:10;;;;;;;3.93;2.97;;;29.20;98.00;;;;;;5100745;27;20448;-76
2022/07/19 06:52:37;;;;;;;7.70;3.27;;;29.40;97.60;;;;;;5102758;28;20952;-77
2022/07/19 06:55:04;;;;;;;3.40;2.90;;;29.80;96.60;;;;;;5100754;27;20790;-77
2022/07/19 06:57:31;;;;;;;6.90;3.20;;;30.20;95.50;;;;;;5100487;27;20472;-76
2022/07/19 06:59:57;;;;;;;5.53;2.97;;;30.60;95.70;;;;;;5103459;27;20453;-76
2022/07/19 07:02:24;;;;;;;5.33;2.70;;;31.10;95.20;;;;;;5099501;28;20543;-76
2022/07/19 07:04:52;;;;;;;3.13;2.60;;;31.40;93.90;;;;;;5104766;27;20964;-76
2022/07/19 07:07:19;;;;;;;7.03;2.33;;;31.50;91.20;;;;;;5109191;27;20511;-78
2022/07/19 07:09:46;;;;;;;7.30;3.07;;;31.20;91.50;;;;;;5103275;28;20478;-77
2022/07/19 07:12:13;;;;;;;7.30;2.43;;;31.60;91.70;;;;;;5104840;28;20453;-76
2022/07/19 07:14:40;;;;;;;4.63;2.57;;;31.90;91.00;;;;;;5108924;28;20475;-77
2022/07/19 07:17:07;;;;;;;3.30;2.10;;;32.20;90.20;;;;;;5109043;28;20464;-77
2022/07/19 07:19:33;;;;;;;4.60;2.50;;;32.30;88.40;;;;;;5102921;28;20485;-75
2022/07/19 07:22:02;;;;;;;5.53;3.10;;;32.40;88.70;;;;;;5102647;28;20835;-76
2022/07/19 07:24:29;;;;;;;4.53;2.30;;;32.10;89.00;;;;;;5105237;28;20809;-77
2022/07/19 07:26:56;;;;;;;4.97;2.87;;;32.30;86.00;;;;;;5105628;28;20461;-76
2022/07/19 07:29:23;;;;;;;5.90;2.50;;;32.70;86.80;;;;;;5102131;28;20917;-75
2022/07/19 07:31:50;;;;;;;4.87;2.70;;;32.90;86.60;;;;;;5102343;28;20446;-76
2022/07/19 07:34:17;;;;;;;3.83;2.57;;;33.20;84.00;;;;;;5097499;28;20457;-75
2022/07/19 07:36:44;;;;;;;6.20;2.80;;;33.10;83.70;;;;;;5100429;28;20537;-76
2022/07/19 07:39:13;;;;;;;3.27;2.63;;;33.70;82.80;;;;;;5099833;28;20473;-77
2022/07/19 07:41:40;;;;;;;4.93;2.53;;;34.00;80.70;;;;;;5107500;27;20499;-76
2022/07/19 07:44:07;;;;;;;5.07;3.33;;;34.30;80.40;;;;;;5102870;28;20843;-76
2022/07/19 07:46:34;;;;;;;16.67;3.10;;;34.30;79.20;;;;;;5104975;28;20918;-77
2022/07/19 07:49:01;;;;;;;4.30;2.20;;;33.90;75.60;;;;;;5102494;28;20489;-77
2022/07/19 07:51:28;;;;;;;6.43;3.23;;;34.20;75.50;;;;;;5104396;28;20477;-77
2022/07/19 07:53:55;;;;;;;6.93;2.40;;;35.00;73.90;;;;;;5102986;28;20952;-77
2022/07/19 07:56:24;;;;;;;3.53;2.53;;;35.20;72.20;;;;;;5104051;28;20440;-77
2022/07/19 07:58:51;;;;;;;6.43;3.20;;;35.50;71.00;;;;;;5100802;28;20998;-77
2022/07/19 08:01:17;;;;;;;5.70;3.90;;;35.90;69.10;;;;;;5098655;28;20484;-77
2022/07/19 08:03:44;;;;;;;7.20;3.07;;;36.30;67.50;;;;;;5103461;28;20505;-77
2022/07/19 08:06:11;;;;;;;2.83;2.33;;;36.50;66.70;;;;;;5102897;28;20448;-77
2022/07/19 08:08:39;;;;;;;4.40;3.13;;;36.50;66.80;;;;;;5101306;28;20483;-76
2022/07/19 08:11:06;;;;;;;6.27;2.93;;;37.10;63.30;;;;;;5103981;28;20957;-76
2022/07/19 08:13:34;;;;;;;9.60;4.10;;;37.00;60.60;;;;;;5102985;28;20528;-77
2022/07/19 08:16:01;;;;;;;3.60;2.80;;;36.60;60.80;;;;;;5101713;28;20449;-77
2022/07/19 08:18:28;;;;;;;14.07;5.60;;;37.00;59.60;;;;;;5102033;28;20680;-77
2022/07/19 08:20:55;;;;;;;9.63;3.20;;;37.50;58.80;;;;;;5103782;28;20437;-77
2022/07/19 08:23:22;;;;;;;4.53;2.63;;;37.70;57.80;;;;;;5104333;28;20470;-77
2022/07/19 08:25:48;;;;;;;8.40;3.60;;;38.20;57.10;;;;;;5102555;28;20454;-77
2022/07/19 08:28:15;;;;;;;5.60;3.57;;;37.60;56.80;;;;;;5102030;28;20480;-77
2022/07/19 08:30:43;;;;;;;4.33;3.13;;;37.30;56.30;;;;;;5099069;28;20455;-78
2022/07/19 08:33:10;;;;;;;4.47;2.90;;;38.10;54.60;;;;;;5103452;27;20441;-77
2022/07/19 08:35:37;;;;;;;8.70;3.00;;;38.30;55.70;;;;;;5107621;27;20487;-77
2022/07/19 08:38:04;;;;;;;12.23;3.33;;;38.60;52.90;;;;;;5105467;28;20460;-77
2022/07/19 08:40:34;;;;;;;13.00;3.43;;;38.80;53.70;;;;;;5102235;27;20548;-77
2022/07/19 08:43:04;;;;;;;7.07;3.20;;;39.10;52.60;;;;;;5105654;28;20461;-77
2022/07/19 08:45:32;;;;;;;5.47;2.63;;;38.70;52.30;;;;;;5105226;28;20446;-77
2022/07/19 08:48:01;;;;;;;6.47;2.77;;;38.80;52.20;;;;;;5107356;27;20491;-77
2022/07/19 08:50:28;;;;;;;5.03;2.63;;;39.40;52.30;;;;;;5108887;27;20528;-77
2022/07/19 08:52:56;;;;;;;4.30;2.20;;;39.10;50.60;;;;;;5106156;28;20548;-77
2022/07/19 08:55:23;;;;;;;4.93;3.03;;;38.80;50.90;;;;;;5108114;28;20725;-77
2022/07/19 08:58:01;;;;;;;5.30;3.20;;;39.50;49.60;;;;;;5106817;27;20449;-77
2022/07/19 09:00:29;;;;;;;4.97;2.90;;;39.70;49.20;;;;;;5104461;28;20450;-78
2022/07/19 09:02:59;;;;;;;6.70;3.47;;;40.40;49.20;;;;;;5108486;27;20898;-78
2022/07/19 09:05:28;;;;;;;5.60;2.73;;;40.80;47.30;;;;;;5106043;27;20442;-77
2022/07/19 09:08:11;;;;;;;5.30;2.53;;;41.00;47.20;;;;;;5102719;28;20484;-77
2022/07/19 09:10:39;;;;;;;7.33;3.10;;;40.70;47.10;;;;;;5106249;27;20528;-78
2022/07/19 09:13:09;;;;;;;4.50;3.50;;;40.60;46.10;;;;;;5105788;28;20456;-78
2022/07/19 09:15:42;;;;;;;3.97;3.47;;;40.70;45.40;;;;;;5104712;28;20472;-77
2022/07/19 09:18:10;;;;;;;2.80;2.50;;;40.50;45.00;;;;;;5106970;27;20493;-77
2022/07/19 09:20:39;;;;;;;6.23;3.30;;;40.70;45.40;;;;;;5107852;27;20450;-77
2022/07/19 09:23:06;;;;;;;7.53;3.30;;;41.70;44.60;;;;;;5108113;27;20581;-77
2022/07/19 09:25:34;;;;;;;5.00;2.57;;;42.00;43.40;;;;;;5107017;27;20449;-75
2022/07/19 09:28:01;;;;;;;3.67;2.10;;;41.80;43.30;;;;;;5105104;27;20583;-75
2022/07/19 09:30:40;;;;;;;4.60;2.50;;;42.20;42.20;;;;;;5103920;27;20455;-77
2022/07/19 09:33:09;;;;;;;4.00;2.60;;;42.20;43.10;;;;;;5107753;27;20484;-78
2022/07/19 09:35:43;;;;;;;2.33;2.00;;;42.40;42.80;;;;;;5107642;27;20825;-78
2022/07/19 09:38:24;;;;;;;3.87;2.67;;;42.20;40.50;;;;;;5105557;27;20462;-77
2022/07/19 09:40:53;;;;;;;2.67;2.47;;;41.80;39.50;;;;;;5104451;27;20512;-77
2022/07/19 09:43:30;;;;;;;5.57;2.37;;;42.00;38.50;;;;;;5100384;27;20544;-84
2022/07/19 09:45:56;;;;;;;4.57;2.70;;;42.40;37.80;;;;;;5101328;27;20938;-76
2022/07/19 09:48:43;;;;;;;6.80;2.40;;;41.90;38.00;;;;;;5107320;22;20513;-73
2022/07/19 09:51:11;;;;;;;4.83;2.23;;;42.20;39.80;;;;;;5080694;28;20448;-72
2022/07/19 09:53:39;;;;;;;6.20;2.10;;;43.20;37.80;;;;;;5079812;28;20437;-74
2022/07/19 09:56:06;;;;;;;4.57;2.37;;;43.80;37.20;;;;;;5084501;28;20454;-72
2022/07/19 09:58:33;;;;;;;5.03;2.70;;;43.80;37.50;;;;;;5076285;28;20481;-73
2022/07/19 10:01:00;;;;;;;10.90;2.77;;;44.00;36.40;;;;;;5079008;28;20442;-72
2022/07/19 10:03:26;;;;;;;3.07;2.50;;;44.50;36.20;;;;;;5081289;28;20529;-73
2022/07/19 10:05:56;;;;;;;9.83;2.30;;;44.80;36.20;;;;;;5081683;28;20479;-73
2022/07/19 10:08:25;;;;;;;4.20;2.13;;;44.40;35.80;;;;;;5081469;28;20487;-73
2022/07/19 10:10:52;;;;;;;2.70;2.50;;;44.00;35.80;;;;;;5084424;28;20868;-73
2022/07/19 10:13:20;;;;;;;2.33;2.13;;;44.10;34.20;;;;;;5079864;28;20955;-73
2022/07/19 10:15:49;;;;;;;4.03;2.20;;;44.00;34.20;;;;;;5081744;28;20456;-74
2022/07/19 10:18:20;;;;;;;4.40;2.13;;;43.60;34.40;;;;;;5079769;28;20529;-73
2022/07/19 10:20:48;;;;;;;2.90;2.17;;;44.10;35.10;;;;;;5081381;28;20470;-73
2022/07/19 10:23:15;;;;;;;2.07;1.83;;;44.90;33.80;;;;;;5084268;28;20525;-72
2022/07/19 10:25:45;;;;;;;1.87;1.70;;;44.90;32.70;;;;;;5081833;28;20546;-73
2022/07/19 10:28:31;;;;;;;5.10;2.97;;;44.90;32.90;;;;;;5078673;28;20572;-74
2022/07/19 10:30:58;;;;;;;3.60;1.90;;;44.90;32.40;;;;;;5070088;28;20547;-73
2022/07/19 10:33:32;;;;;;;3.17;2.30;;;45.40;32.30;;;;;;5080386;28;20950;-73
2022/07/19 10:36:19;;;;;;;5.50;2.03;;;45.90;32.40;;;;;;5083926;28;20832;-74
2022/07/19 10:39:19;;;;;;;6.83;1.73;;;45.70;30.80;;;;;;5083400;28;20472;-73
2022/07/19 10:42:05;;;;;;;3.27;1.87;;;45.70;31.10;;;;;;5083973;28;20465;-74
2022/07/19 10:44:33;;;;;;;5.07;2.23;;;46.00;30.90;;;;;;5083056;28;20459;-73
2022/07/19 10:47:00;;;;;;;2.20;2.00;;;44.90;31.20;;;;;;5084223;28;20449;-72
2022/07/19 10:49:48;;;;;;;1.90;1.70;;;45.00;30.90;;;;;;5116307;27;20499;-73
2022/07/19 10:52:33;;;;;;;2.33;1.80;;;45.60;31.00;;;;;;5112791;27;20452;-73
2022/07/19 10:55:30;;;;;;;2.50;2.00;;;46.20;30.10;;;;;;5119115;27;20783;-74
2022/07/19 10:58:11;;;;;;;3.47;2.13;;;46.50;30.40;;;;;;5117438;27;20480;-73
2022/07/19 11:00:47;;;;;;;4.70;2.10;;;46.70;30.10;;;;;;5118863;27;20452;-73
2022/07/19 11:03:30;;;;;;;2.53;2.33;;;46.70;29.60;;;;;;5119363;27;20449;-74
2022/07/19 11:05:59;;;;;;;2.23;2.03;;;45.40;29.90;;;;;;5122687;27;20444;-74
2022/07/19 11:08:34;;;;;;;3.60;2.33;;;45.40;30.80;;;;;;5120100;27;20945;-73
2022/07/19 11:11:05;;;;;;;4.33;2.03;;;45.90;30.10;;;;;;5120589;27;20440;-73
2022/07/19 11:13:34;;;;;;;2.30;2.03;;;45.40;29.80;;;;;;5121722;27;20896;-74
2022/07/19 11:16:02;;;;;;;2.47;2.03;;;44.80;30.50;;;;;;5118299;27;20465;-73
2022/07/19 11:18:29;;;;;;;5.50;2.20;;;44.90;29.90;;;;;;5119466;27;20995;-73
2022/07/19 11:20:58;;;;;;;5.60;2.07;;;45.70;30.20;;;;;;5122365;27;20447;-73
2022/07/19 11:23:28;;;;;;;3.53;2.33;;;46.00;30.00;;;;;;5123365;27;20445;-73
2022/07/19 11:26:07;;;;;;;3.13;2.00;;;46.60;30.00;;;;;;5119457;27;20448;-75
2022/07/19 11:28:35;;;;;;;2.13;1.93;;;46.70;29.60;;;;;;5121840;27;20843;-74
2022/07/19 11:31:11;;;;;;;3.03;2.83;;;47.00;30.50;;;;;;5117137;27;20440;-74
2022/07/19 11:33:38;;;;;;;5.33;1.97;;;47.30;29.20;;;;;;5121980;27;21658;-74
2022/07/19 11:36:05;;;;;;;4.23;2.27;;;47.50;29.10;;;;;;5118827;27;20602;-73
2022/07/19 11:38:40;;;;;;;4.13;2.53;;;47.10;29.10;;;;;;5120312;27;21333;-73
2022/07/19 11:41:14;;;;;;;3.90;2.87;;;46.90;29.20;;;;;;5118952;27;20479;-73
2022/07/19 11:43:43;;;;;;;2.40;2.20;;;47.10;29.10;;;;;;5118637;27;20455;-73
2022/07/19 11:46:10;;;;;;;3.10;2.20;;;46.70;28.60;;;;;;5121517;27;20452;-75
2022/07/19 11:48:37;;;;;;;4.83;2.23;;;46.40;29.10;;;;;;5121424;27;20483;-73
2022/07/19 11:51:07;;;;;;;3.93;2.80;;;46.10;29.20;;;;;;5123538;27;20867;-73
2022/07/19 11:53:35;;;;;;;3.17;2.30;;;45.70;28.80;;;;;;5114065;27;20466;-73
2022/07/19 11:56:03;;;;;;;5.17;2.40;;;45.10;29.00;;;;;;5120013;27;20440;-73
2022/07/19 11:58:31;;;;;;;2.83;2.63;;;45.50;29.50;;;;;;5120698;27;20471;-73
2022/07/19 12:01:04;;;;;;;8.67;2.13;;;46.40;28.40;;;;;;5121219;27;20845;-73
2022/07/19 12:03:31;;;;;;;3.73;3.23;;;46.00;28.90;;;;;;5118947;27;20432;-74
2022/07/19 12:06:01;;;;;;;2.20;2.00;;;45.00;28.60;;;;;;5122732;27;20438;-73
2022/07/19 12:08:36;;;;;;;6.27;2.33;;;44.30;29.20;;;;;;5121849;27;20488;-73
2022/07/19 12:11:15;;;;;;;2.37;2.00;;;44.40;29.70;;;;;;5123048;27;20590;-72
2022/07/19 12:13:42;;;;;;;2.50;2.30;;;45.50;28.80;;;;;;5124912;27;20869;-73
2022/07/19 12:16:12;;;;;;;4.87;1.93;;;46.50;28.10;;;;;;5125198;27;21217;-73
2022/07/19 12:18:45;;;;;;;2.17;1.97;;;46.60;28.20;;;;;;5118715;27;20527;-73
2022/07/19 12:21:21;;;;;;;2.60;2.33;;;46.20;27.80;;;;;;5127180;27;20474;-72
2022/07/19 12:24:10;;;;;;;2.90;2.50;;;44.70;28.60;;;;;;5123342;27;20460;-73
2022/07/19 12:26:37;;;;;;;6.30;3.40;;;45.70;28.30;;;;;;5122933;27;21007;-72
2022/07/19 12:29:17;;;;;;;2.27;1.90;;;46.40;28.00;;;;;;5126570;27;20485;-73
2022/07/19 12:31:46;;;;;;;2.87;2.10;;;47.70;28.10;;;;;;5124998;27;20447;-73
2022/07/19 12:34:13;;;;;;;2.53;2.30;;;48.00;27.60;;;;;;5127694;27;20454;-73
2022/07/19 12:36:40;;;;;;;5.80;2.57;;;48.20;28.20;;;;;;5126552;27;20810;-73
2022/07/19 12:39:18;;;;;;;3.00;2.43;;;49.00;27.30;;;;;;5126787;27;20460;-72
2022/07/19 12:41:57;;;;;;;2.10;1.90;;;48.80;27.30;;;;;;5125150;27;20451;-73
2022/07/19 12:44:24;;;;;;;2.20;2.00;;;48.80;26.90;;;;;;5123645;27;20451;-73
2022/07/19 12:46:52;;;;;;;2.20;2.00;;;48.20;27.50;;;;;;5127438;27;20462;-73
2022/07/19 12:49:19;;;;;;;3.17;2.23;;;47.90;27.20;;;;;;5121963;27;20481;-72
2022/07/19 12:51:46;;;;;;;2.07;1.97;;;47.10;27.40;;;;;;5123975;27;20544;-73
2022/07/19 12:54:13;;;;;;;2.23;2.03;;;47.30;27.20;;;;;;5117735;27;20462;-73